Time;durP1;ratioP1;P1;durP2;ratioP2;P2;SDS_P1;SDS_P2;PMS_P1;PMS_P2;Temp;Humidity;BMP_temperature;BMP_pressure;BME280_temperature;BME280_humidity;BME280_pressure;Samples;Min_cycle;Max_cycle;Signal;HPM_P1;HPM_P2
2022/01/16 00:05:31;;;;;;;21.00;13.43;;;3.70;99.90;;;;;;4899473;29;20206;-68
2022/01/16 00:08:17;;;;;;;23.27;14.80;;;3.70;99.90;;;;;;4898250;29;20210;-68
2022/01/16 00:11:03;;;;;;;22.45;15.68;;;3.70;99.90;;;;;;4898236;29;20226;-69
2022/01/16 00:13:48;;;;;;;20.00;13.77;;;3.60;99.90;;;;;;4888947;29;20221;-69
2022/01/16 00:16:35;;;;;;;21.92;14.32;;;3.60;99.90;;;;;;4891945;29;20226;-69
2022/01/16 00:19:20;;;;;;;21.73;14.05;;;3.70;99.90;;;;;;4891220;29;20209;-68
2022/01/16 00:22:13;;;;;;;20.52;13.75;;;3.70;99.90;;;;;;4897367;29;20297;-69
2022/01/16 00:25:02;;;;;;;25.73;14.15;;;3.70;99.90;;;;;;4887711;29;20210;-69
2022/01/16 00:27:48;;;;;;;27.85;15.60;;;3.60;99.90;;;;;;4897782;29;20722;-69
2022/01/16 00:30:34;;;;;;;27.58;17.63;;;3.70;99.90;;;;;;4892259;29;20254;-69
2022/01/16 00:33:20;;;;;;;28.65;18.88;;;3.80;99.90;;;;;;4895003;29;20206;-69
2022/01/16 00:36:06;;;;;;;25.67;16.02;;;3.70;99.90;;;;;;4890427;29;20226;-68
2022/01/16 00:38:56;;;;;;;27.40;17.70;;;3.80;99.90;;;;;;4896607;29;20239;-69
2022/01/16 00:41:43;;;;;;;29.27;17.95;;;3.70;99.90;;;;;;4897273;29;20218;-69
2022/01/16 00:44:29;;;;;;;27.38;17.17;;;3.70;99.90;;;;;;4893758;29;20247;-69
2022/01/16 00:47:15;;;;;;;27.20;17.40;;;3.70;99.90;;;;;;4898201;29;20214;-69
2022/01/16 00:50:00;;;;;;;27.90;16.85;;;3.70;99.90;;;;;;4895677;29;20226;-69
2022/01/16 00:52:46;;;;;;;29.67;17.55;;;3.80;99.90;;;;;;4895734;29;20259;-69
2022/01/16 00:55:33;;;;;;;31.77;17.17;;;3.80;99.90;;;;;;4895120;29;20727;-69
2022/01/16 00:58:19;;;;;;;28.58;17.85;;;3.80;99.90;;;;;;4890389;29;20701;-68
2022/01/16 01:01:05;;;;;;;30.52;18.92;;;3.90;99.90;;;;;;4894787;29;20226;-69
2022/01/16 01:03:50;;;;;;;32.72;20.30;;;3.80;99.90;;;;;;4893633;29;20209;-68
2022/01/16 01:06:36;;;;;;;34.88;20.70;;;3.80;99.90;;;;;;4895977;29;20219;-69
2022/01/16 01:09:21;;;;;;;31.63;19.20;;;3.70;99.90;;;;;;4891355;29;20344;-69
2022/01/16 01:12:13;;;;;;;34.10;21.08;;;3.70;99.90;;;;;;4897152;29;20294;-69
2022/01/16 01:18:00;;;;;;;40.03;23.80;;;3.60;99.90;;;;;;4897469;29;20209;-69
2022/01/16 01:20:48;;;;;;;38.65;22.92;;;3.60;99.90;;;;;;4896877;29;20233;-69
2022/01/16 01:23:33;;;;;;;44.47;26.02;;;3.50;99.90;;;;;;4892641;29;20683;-69
2022/01/16 01:26:24;;;;;;;42.30;25.30;;;3.50;99.90;;;;;;4887974;29;20577;-69
2022/01/16 01:29:15;;;;;;;43.70;25.45;;;3.60;99.90;;;;;;4894408;29;20414;-68
2022/01/16 01:32:01;;;;;;;46.00;24.85;;;3.60;99.90;;;;;;4896441;29;20226;-69
2022/01/16 01:34:47;;;;;;;39.40;23.25;;;3.60;99.90;;;;;;4895760;29;20614;-69
2022/01/16 01:37:32;;;;;;;47.70;25.38;;;3.70;99.90;;;;;;4889149;29;20233;-68
2022/01/16 01:40:20;;;;;;;39.63;22.52;;;3.60;99.90;;;;;;4896471;29;20225;-68
2022/01/16 01:51:02;;;;;;;44.03;24.55;;;3.50;99.90;;;;;;4893550;29;20217;-68
2022/01/16 01:52:31;;;;;;;38.30;23.65;;;3.50;99.90;;;;;;4894755;29;20225;-69
2022/01/16 01:55:17;;;;;;;36.03;22.60;;;3.50;99.90;;;;;;4894366;29;20362;-69
2022/01/16 01:58:03;;;;;;;42.20;21.95;;;3.50;99.90;;;;;;4896493;29;20671;-69
2022/01/16 02:00:49;;;;;;;37.20;21.90;;;3.50;99.90;;;;;;4896005;29;20623;-68
2022/01/16 02:03:42;;;;;;;47.17;26.08;;;3.50;99.90;;;;;;4893236;29;20209;-68
2022/01/16 02:06:30;;;;;;;55.45;28.08;;;3.60;99.90;;;;;;4895649;29;20207;-69
2022/01/16 02:09:16;;;;;;;51.50;27.58;;;3.50;99.90;;;;;;4887882;29;20217;-69
2022/01/16 02:12:02;;;;;;;58.92;29.30;;;3.50;99.90;;;;;;4895015;29;20206;-69
2022/01/16 02:14:57;;;;;;;56.00;28.35;;;3.40;99.90;;;;;;4896503;29;20230;-69
2022/01/16 02:33:24;;;;;;;53.63;27.40;;;3.10;99.90;;;;;;4892903;29;20222;-68
2022/01/16 02:36:13;;;;;;;61.00;30.33;;;3.00;99.90;;;;;;4899346;29;20257;-68
2022/01/16 02:39:06;;;;;;;56.90;26.95;;;3.00;99.90;;;;;;4895345;29;20237;-68
2022/01/16 02:41:52;;;;;;;46.50;25.55;;;3.00;99.90;;;;;;4894261;29;20348;-69
2022/01/16 02:44:45;;;;;;;63.38;28.90;;;3.00;99.90;;;;;;4891005;29;20263;-68
2022/01/16 02:47:31;;;;;;;58.92;30.75;;;3.00;99.90;;;;;;4889753;29;20206;-69
2022/01/16 02:50:16;;;;;;;71.78;31.98;;;3.00;99.90;;;;;;4892543;29;20335;-69
2022/01/16 02:53:07;;;;;;;53.03;27.35;;;3.00;99.90;;;;;;4892217;29;20318;-68
2022/01/16 02:55:53;;;;;;;54.55;30.50;;;3.00;99.90;;;;;;4894949;29;20230;-69
2022/01/16 02:58:39;;;;;;;56.70;27.50;;;3.10;99.90;;;;;;4894917;29;20213;-69
2022/01/16 03:01:25;;;;;;;57.58;29.20;;;3.10;99.90;;;;;;4891770;29;20316;-69
2022/01/16 03:04:11;;;;;;;66.00;32.92;;;3.00;99.90;;;;;;4893360;29;20359;-68
2022/01/16 03:06:59;;;;;;;57.05;28.75;;;3.00;99.90;;;;;;4896879;29;20209;-68
2022/01/16 03:10:01;;;;;;;58.20;27.33;;;2.90;99.90;;;;;;4899213;29;20230;-69
2022/01/16 03:12:49;;;;;;;55.47;28.02;;;2.90;99.90;;;;;;4894190;29;20214;-68
2022/01/16 03:15:38;;;;;;;62.70;30.10;;;2.70;99.90;;;;;;4898226;29;20241;-68
2022/01/16 03:24:34;;;;;;;53.42;26.70;;;2.80;99.90;;;;;;4897784;29;20253;-69
2022/01/16 03:27:20;;;;;;;66.45;30.23;;;2.90;99.90;;;;;;4891872;29;20573;-68
2022/01/16 03:30:10;;;;;;;58.35;29.65;;;2.80;99.90;;;;;;4897275;29;20245;-69
2022/01/16 03:32:57;;;;;;;55.28;27.38;;;2.90;99.90;;;;;;4896944;29;20254;-69
2022/01/16 03:35:42;;;;;;;58.35;27.25;;;2.90;99.90;;;;;;4900872;29;20230;-68
2022/01/16 03:38:28;;;;;;;62.08;28.90;;;2.90;99.90;;;;;;4894570;29;20254;-68
2022/01/16 03:41:13;;;;;;;54.95;27.33;;;2.90;99.90;;;;;;4897534;29;20358;-69
2022/01/16 03:44:01;;;;;;;59.70;28.38;;;2.90;99.90;;;;;;4886927;29;20210;-68
2022/01/16 03:46:48;;;;;;;61.50;26.67;;;2.90;99.90;;;;;;4897097;29;20214;-68
2022/01/16 03:49:34;;;;;;;58.67;31.00;;;2.80;99.90;;;;;;4894456;29;20230;-68
2022/01/16 03:52:20;;;;;;;56.88;28.23;;;2.90;99.90;;;;;;4893883;29;20562;-68
2022/01/16 03:55:07;;;;;;;57.42;26.50;;;3.00;99.90;;;;;;4897880;29;20230;-69
2022/01/16 03:57:53;;;;;;;58.78;28.90;;;3.00;99.90;;;;;;4897356;29;20206;-68
2022/01/16 04:00:38;;;;;;;62.05;29.17;;;2.90;99.90;;;;;;4897331;29;20241;-68
2022/01/16 04:03:26;;;;;;;66.53;28.58;;;2.90;99.90;;;;;;4896036;29;20327;-68
2022/01/16 04:06:12;;;;;;;59.85;29.10;;;2.80;99.90;;;;;;4900359;29;20269;-68
2022/01/16 04:08:57;;;;;;;59.83;29.38;;;2.70;99.90;;;;;;4898392;29;20198;-68
2022/01/16 04:11:50;;;;;;;64.55;29.17;;;2.80;99.90;;;;;;4895141;29;20704;-69
2022/01/16 04:17:36;;;;;;;60.53;28.08;;;2.70;99.90;;;;;;4890942;29;20279;-68
2022/01/16 04:20:23;;;;;;;54.70;26.60;;;2.80;99.90;;;;;;4895102;29;20225;-68
2022/01/16 04:23:10;;;;;;;55.35;26.70;;;2.80;99.90;;;;;;4894980;29;20218;-68
2022/01/16 04:25:55;;;;;;;64.07;27.98;;;2.70;99.90;;;;;;4897929;29;20206;-68
2022/01/16 04:28:41;;;;;;;52.53;26.40;;;2.80;99.90;;;;;;4894928;29;20826;-69
2022/01/16 04:31:27;;;;;;;52.88;27.95;;;2.80;99.90;;;;;;4895033;29;20230;-69
2022/01/16 04:34:13;;;;;;;63.17;28.55;;;2.80;99.90;;;;;;4896726;29;20270;-69
2022/01/16 04:37:00;;;;;;;59.83;27.20;;;2.80;99.90;;;;;;4894144;29;20245;-68
2022/01/16 04:39:49;;;;;;;62.40;29.70;;;2.80;99.90;;;;;;4898181;29;20226;-69
2022/01/16 04:45:38;;;;;;;72.18;30.88;;;2.70;99.90;;;;;;4893347;29;20190;-68
2022/01/16 04:48:24;;;;;;;72.18;28.75;;;2.70;99.90;;;;;;4897050;29;20733;-69
2022/01/16 04:51:10;;;;;;;59.97;26.83;;;2.60;99.90;;;;;;4894495;29;20593;-69
2022/01/16 04:53:58;;;;;;;61.70;26.48;;;2.60;99.90;;;;;;4896006;29;20274;-68
2022/01/16 04:56:43;;;;;;;60.45;27.60;;;2.60;99.90;;;;;;4896752;29;20217;-69
2022/01/16 04:59:29;;;;;;;69.18;28.58;;;2.50;99.90;;;;;;4890867;29;20298;-68
2022/01/16 05:02:14;;;;;;;55.75;28.05;;;2.50;99.90;;;;;;4896568;29;20210;-68
2022/01/16 05:05:00;;;;;;;66.07;28.67;;;2.50;99.90;;;;;;4898745;29;20217;-68
2022/01/16 05:07:46;;;;;;;64.93;28.38;;;2.40;99.90;;;;;;4895003;29;20218;-69
2022/01/16 05:10:33;;;;;;;57.80;27.27;;;2.50;99.90;;;;;;4888944;29;20229;-68
2022/01/16 05:13:30;;;;;;;56.78;26.75;;;2.40;99.90;;;;;;4890275;29;20566;-68
2022/01/16 05:16:35;;;;;;;54.75;25.95;;;2.40;99.90;;;;;;4894408;29;20225;-68
2022/01/16 05:19:21;;;;;;;56.08;28.30;;;2.50;99.90;;;;;;4890395;29;20195;-69
2022/01/16 05:22:06;;;;;;;53.35;26.73;;;2.20;99.90;;;;;;4895366;29;20210;-69
2022/01/16 05:24:52;;;;;;;60.85;26.08;;;2.20;99.90;;;;;;4895222;29;20209;-68
2022/01/16 05:27:39;;;;;;;50.03;26.92;;;2.20;99.90;;;;;;4895340;29;20370;-68
2022/01/16 05:30:25;;;;;;;60.67;30.42;;;2.20;99.90;;;;;;4890839;29;20577;-69
2022/01/16 05:33:10;;;;;;;62.47;30.90;;;2.20;99.90;;;;;;4896627;29;20573;-68
2022/01/16 05:35:56;;;;;;;56.60;29.02;;;2.10;99.90;;;;;;4895502;29;20302;-68
2022/01/16 05:38:42;;;;;;;54.45;26.08;;;2.30;99.90;;;;;;4895788;29;20250;-69
2022/01/16 05:41:28;;;;;;;53.20;25.98;;;2.40;99.90;;;;;;4894170;29;20289;-68
2022/01/16 05:44:15;;;;;;;54.75;27.02;;;2.30;99.90;;;;;;4897223;29;20206;-68
2022/01/16 05:47:02;;;;;;;55.72;25.63;;;2.30;99.90;;;;;;4893924;29;20761;-69
2022/01/16 05:49:48;;;;;;;55.90;26.73;;;2.40;99.90;;;;;;4890203;29;20230;-68
2022/01/16 05:52:33;;;;;;;52.70;25.80;;;2.40;99.90;;;;;;4890253;29;20210;-68
2022/01/16 05:55:20;;;;;;;59.90;27.23;;;2.30;99.90;;;;;;4888618;29;20309;-68
2022/01/16 05:58:06;;;;;;;51.70;26.67;;;2.30;99.90;;;;;;4893404;29;20222;-69
2022/01/16 06:00:53;;;;;;;61.63;27.42;;;2.40;99.90;;;;;;4890315;29;20593;-68
2022/01/16 06:03:39;;;;;;;53.00;25.75;;;2.40;99.90;;;;;;4895051;29;20250;-68
2022/01/16 06:06:25;;;;;;;51.92;25.42;;;2.40;99.90;;;;;;4899454;29;20331;-69
2022/01/16 06:11:42;;;;;;;53.60;27.33;;;2.30;99.90;;;;;;4931774;29;20288;-74
2022/01/16 06:14:28;;;;;;;53.80;25.80;;;2.30;99.90;;;;;;4932460;29;20213;-72
2022/01/16 06:17:15;;;;;;;53.53;26.83;;;2.30;99.90;;;;;;4933992;29;20282;-73
2022/01/16 06:20:01;;;;;;;66.88;27.10;;;2.30;99.90;;;;;;4928395;29;20236;-74
2022/01/16 06:22:47;;;;;;;55.55;28.50;;;2.30;99.90;;;;;;4929830;29;20228;-74
2022/01/16 06:25:33;;;;;;;51.78;26.75;;;2.30;99.90;;;;;;4928412;29;20249;-74
2022/01/16 06:28:19;;;;;;;57.55;25.30;;;2.30;99.90;;;;;;4924748;29;20208;-74
2022/01/16 06:31:04;;;;;;;54.28;26.20;;;2.40;99.90;;;;;;4933258;29;20232;-73
2022/01/16 06:33:51;;;;;;;57.90;27.90;;;2.40;99.90;;;;;;4933532;29;20208;-74
2022/01/16 06:36:37;;;;;;;50.72;24.30;;;2.40;99.90;;;;;;4935041;29;20600;-73
2022/01/16 06:39:23;;;;;;;55.13;26.58;;;2.30;99.90;;;;;;4922119;29;20206;-74
2022/01/16 06:42:10;;;;;;;58.17;27.90;;;2.30;99.90;;;;;;4925484;29;20216;-73
2022/01/16 06:44:55;;;;;;;65.53;29.05;;;2.30;99.90;;;;;;4937437;29;20280;-73
2022/01/16 06:47:41;;;;;;;55.38;27.38;;;2.30;99.90;;;;;;4935859;29;20329;-74
2022/01/16 06:50:28;;;;;;;56.10;28.23;;;2.30;99.90;;;;;;4928605;29;20231;-74
2022/01/16 06:53:13;;;;;;;55.80;26.67;;;2.30;99.90;;;;;;4936894;29;20200;-73
2022/01/16 06:55:59;;;;;;;61.70;29.08;;;2.20;99.90;;;;;;4934899;29;20228;-73
2022/01/16 06:58:45;;;;;;;68.30;31.65;;;2.10;99.90;;;;;;4931033;29;20259;-72
2022/01/16 07:01:30;;;;;;;58.35;28.67;;;2.00;99.90;;;;;;4930071;29;20315;-74
2022/01/16 07:04:15;;;;;;;63.45;28.48;;;2.00;99.90;;;;;;4934392;29;20340;-74
2022/01/16 07:07:03;;;;;;;58.97;29.00;;;1.90;99.90;;;;;;4934616;29;20209;-73
2022/01/16 07:09:48;;;;;;;75.88;31.80;;;2.00;99.90;;;;;;4932881;29;20594;-74
2022/01/16 07:12:34;;;;;;;65.97;30.13;;;2.00;99.90;;;;;;4932381;29;20236;-74
2022/01/16 07:15:20;;;;;;;62.55;29.65;;;1.90;99.90;;;;;;4929515;29;20686;-73
2022/01/16 07:18:05;;;;;;;63.63;31.92;;;1.90;99.90;;;;;;4933327;29;20252;-73
2022/01/16 07:20:51;;;;;;;63.30;32.42;;;1.90;99.90;;;;;;4933671;29;20230;-73
2022/01/16 07:23:38;;;;;;;68.55;30.95;;;1.90;99.90;;;;;;4936477;29;20204;-73
2022/01/16 07:26:24;;;;;;;61.97;31.70;;;1.90;99.90;;;;;;4930825;29;20208;-72
2022/01/16 07:29:10;;;;;;;68.22;30.33;;;1.90;99.90;;;;;;4930875;29;20209;-73
2022/01/16 07:31:55;;;;;;;63.25;31.55;;;2.00;99.90;;;;;;4936653;29;20269;-73
2022/01/16 07:34:41;;;;;;;63.35;32.33;;;2.10;99.90;;;;;;4935003;29;20232;-74
2022/01/16 07:37:27;;;;;;;59.97;29.40;;;2.10;99.90;;;;;;4935123;29;20224;-73
2022/01/16 07:40:15;;;;;;;63.47;29.55;;;2.10;99.90;;;;;;4928991;29;20345;-73
2022/01/16 07:43:00;;;;;;;64.88;30.92;;;2.20;99.90;;;;;;4937424;29;20201;-73
2022/01/16 07:45:46;;;;;;;60.88;32.13;;;2.20;99.90;;;;;;4934379;29;20205;-73
2022/01/16 07:48:31;;;;;;;59.35;29.63;;;2.10;99.90;;;;;;4923849;29;20213;-73
2022/01/16 07:51:17;;;;;;;68.47;33.47;;;2.00;99.90;;;;;;4936128;29;20240;-73
2022/01/16 07:54:03;;;;;;;67.00;33.08;;;2.00;99.90;;;;;;4936290;29;20224;-73
2022/01/16 07:56:50;;;;;;;67.13;31.90;;;1.90;99.90;;;;;;4936323;29;20232;-73
2022/01/16 07:59:36;;;;;;;69.20;33.92;;;1.90;99.90;;;;;;4930296;29;20228;-74
2022/01/16 08:02:22;;;;;;;69.28;33.10;;;1.90;99.90;;;;;;4936231;29;20217;-74
2022/01/16 08:05:09;;;;;;;69.95;32.90;;;1.90;99.90;;;;;;4936101;29;20236;-74
2022/01/16 08:07:55;;;;;;;62.55;32.50;;;1.90;99.90;;;;;;4931097;29;20686;-74
2022/01/16 08:10:41;;;;;;;62.67;31.67;;;2.00;99.90;;;;;;4935566;29;20346;-73
2022/01/16 08:13:28;;;;;;;59.83;29.02;;;2.10;99.90;;;;;;4934253;29;20678;-74
2022/01/16 08:16:14;;;;;;;57.38;28.95;;;2.10;99.90;;;;;;4934536;29;20204;-74
2022/01/16 08:19:00;;;;;;;63.97;28.75;;;2.10;99.90;;;;;;4931953;29;20216;-74
2022/01/16 08:21:45;;;;;;;56.72;28.08;;;2.20;99.90;;;;;;4934559;29;20209;-73
2022/01/16 08:24:31;;;;;;;61.95;30.50;;;2.10;99.90;;;;;;4934285;29;20674;-74
2022/01/16 08:27:16;;;;;;;56.63;30.20;;;2.10;99.90;;;;;;4926771;29;20336;-74
2022/01/16 08:30:05;;;;;;;61.20;31.02;;;2.10;99.90;;;;;;4928078;29;20263;-73
2022/01/16 08:32:52;;;;;;;56.15;29.13;;;2.00;99.90;;;;;;4932342;29;20592;-74
2022/01/16 08:35:37;;;;;;;52.10;28.45;;;2.10;99.90;;;;;;4929428;29;20217;-73
2022/01/16 08:38:26;;;;;;;67.80;30.52;;;2.10;99.90;;;;;;4926220;29;20220;-74
2022/01/16 08:41:12;;;;;;;69.20;30.60;;;2.10;99.90;;;;;;4935895;29;20587;-73
2022/01/16 08:43:58;;;;;;;58.47;29.55;;;2.10;99.90;;;;;;4935432;29;20748;-74
2022/01/16 08:46:44;;;;;;;58.08;28.67;;;2.20;99.90;;;;;;4935931;29;20205;-74
2022/01/16 08:49:30;;;;;;;52.08;26.90;;;2.20;99.90;;;;;;4933054;29;20304;-74
2022/01/16 08:52:17;;;;;;;55.13;29.60;;;2.20;99.90;;;;;;4935899;29;20201;-74
2022/01/16 08:55:03;;;;;;;59.58;29.65;;;2.30;99.90;;;;;;4935668;29;20264;-74
2022/01/16 08:57:48;;;;;;;58.47;29.00;;;2.30;99.90;;;;;;4929614;29;20240;-73
2022/01/16 09:00:35;;;;;;;66.72;31.42;;;2.20;99.90;;;;;;4928433;29;20757;-73
2022/01/16 09:03:23;;;;;;;60.92;29.85;;;2.30;99.90;;;;;;4935138;29;20216;-72
2022/01/16 09:06:09;;;;;;;66.82;30.20;;;2.30;99.90;;;;;;4933579;29;20718;-74
2022/01/16 09:08:55;;;;;;;64.10;31.02;;;2.20;99.90;;;;;;4932062;29;20205;-73
2022/01/16 09:11:40;;;;;;;59.88;30.05;;;2.30;99.90;;;;;;4930996;29;20264;-74
2022/01/16 09:14:26;;;;;;;63.47;30.65;;;2.30;99.90;;;;;;4928729;29;20686;-74
2022/01/16 09:17:11;;;;;;;64.57;32.80;;;2.30;99.90;;;;;;4930680;29;20293;-74
2022/01/16 09:19:58;;;;;;;66.97;32.50;;;2.20;99.90;;;;;;4933069;29;20293;-74
2022/01/16 09:22:46;;;;;;;59.00;29.85;;;2.20;99.90;;;;;;4933970;29;20703;-74
2022/01/16 09:25:32;;;;;;;62.17;29.52;;;2.30;99.90;;;;;;4927136;29;20568;-73
2022/01/16 09:28:18;;;;;;;72.38;34.70;;;2.30;99.90;;;;;;4930247;29;20382;-74
2022/01/16 09:31:04;;;;;;;69.65;30.40;;;2.30;99.90;;;;;;4931133;29;20386;-72
2022/01/16 09:33:49;;;;;;;56.75;29.08;;;2.40;99.90;;;;;;4933696;29;20199;-73
2022/01/16 09:36:37;;;;;;;65.05;29.88;;;2.40;99.90;;;;;;4933889;29;20265;-74
2022/01/16 09:39:23;;;;;;;58.95;29.60;;;2.40;99.90;;;;;;4928137;29;20257;-74
2022/01/16 09:42:09;;;;;;;55.47;27.95;;;2.50;99.90;;;;;;4933309;29;20205;-74
2022/01/16 09:44:55;;;;;;;56.60;26.95;;;2.50;99.90;;;;;;4933982;29;20224;-74
2022/01/16 09:47:43;;;;;;;57.75;26.85;;;2.50;99.90;;;;;;4932895;29;20576;-74
2022/01/16 09:50:29;;;;;;;51.47;27.25;;;2.50;99.90;;;;;;4935314;29;20775;-73
2022/01/16 09:53:18;;;;;;;47.97;26.85;;;2.30;99.90;;;;;;4935696;29;20212;-74
2022/01/16 09:56:04;;;;;;;65.55;28.13;;;2.30;99.90;;;;;;4934775;29;20283;-74
2022/01/16 09:58:49;;;;;;;65.35;28.70;;;2.40;99.90;;;;;;4919056;29;20217;-74
2022/01/16 10:01:35;;;;;;;56.22;28.95;;;2.40;99.90;;;;;;4928390;29;20682;-74
2022/01/16 10:04:31;;;;;;;58.03;28.83;;;2.40;99.90;;;;;;4935212;29;20201;-74
2022/01/16 10:07:19;;;;;;;55.75;27.23;;;2.40;99.90;;;;;;4927628;29;20201;-73
2022/01/16 10:10:12;;;;;;;56.40;28.77;;;2.30;99.90;;;;;;4929514;29;20623;-74
2022/01/16 10:13:05;;;;;;;68.93;29.98;;;2.40;99.90;;;;;;4931777;29;20218;-74
2022/01/16 10:15:55;;;;;;;52.72;25.90;;;2.50;99.90;;;;;;4926405;29;20209;-72
2022/01/16 10:18:42;;;;;;;54.88;28.58;;;2.50;99.90;;;;;;4926289;29;20749;-74
2022/01/16 10:21:36;;;;;;;49.60;28.23;;;2.50;99.90;;;;;;4931430;29;20228;-73
2022/01/16 10:24:25;;;;;;;49.00;26.58;;;2.60;99.90;;;;;;4934427;29;20229;-74
2022/01/16 10:27:17;;;;;;;47.60;26.10;;;2.60;99.90;;;;;;4930296;29;20342;-73
2022/01/16 10:30:07;;;;;;;55.58;27.55;;;2.60;99.90;;;;;;4932304;29;20225;-73
2022/01/16 10:32:53;;;;;;;47.35;25.02;;;2.70;99.90;;;;;;4932277;29;20269;-74
2022/01/16 10:35:39;;;;;;;53.40;28.05;;;2.60;99.90;;;;;;4930416;29;20687;-74
2022/01/16 10:38:27;;;;;;;56.58;27.80;;;2.70;99.90;;;;;;4928505;29;20708;-74
2022/01/16 10:41:14;;;;;;;62.60;30.92;;;2.70;99.90;;;;;;4933938;29;20876;-74
2022/01/16 10:44:02;;;;;;;51.67;27.50;;;2.60;99.90;;;;;;4929581;29;20330;-73
2022/01/16 10:46:48;;;;;;;49.22;27.00;;;2.60;99.90;;;;;;4929146;29;20233;-73
2022/01/16 10:49:33;;;;;;;54.88;27.95;;;2.60;99.90;;;;;;4928853;29;20609;-74
2022/01/16 10:52:19;;;;;;;59.95;30.88;;;2.50;99.90;;;;;;4925217;29;20273;-74
2022/01/16 10:55:07;;;;;;;65.65;32.05;;;2.50;99.90;;;;;;4928808;29;20260;-73
2022/01/16 10:58:05;;;;;;;55.58;30.98;;;2.50;99.90;;;;;;4926288;29;20232;-73
2022/01/16 11:00:54;;;;;;;53.38;30.80;;;2.50;99.90;;;;;;4932173;29;20244;-72
2022/01/16 11:03:42;;;;;;;55.53;29.48;;;2.40;99.90;;;;;;4929209;29;20213;-73
2022/01/16 11:06:28;;;;;;;58.95;30.20;;;2.50;99.90;;;;;;4929336;29;20204;-74
2022/01/16 11:09:28;;;;;;;64.65;31.67;;;2.50;99.90;;;;;;4935761;29;20217;-74
2022/01/16 11:12:13;;;;;;;60.97;29.67;;;2.60;99.90;;;;;;4930616;29;20208;-74
2022/01/16 11:14:59;;;;;;;60.83;31.35;;;2.60;99.90;;;;;;4929125;29;20221;-74
2022/01/16 11:17:46;;;;;;;57.90;27.70;;;2.50;99.90;;;;;;4929319;29;20706;-73
2022/01/16 11:20:35;;;;;;;59.35;28.85;;;2.60;99.90;;;;;;4931573;29;20585;-73
2022/01/16 11:23:30;;;;;;;50.08;26.27;;;2.50;99.90;;;;;;4925206;29;20217;-72
2022/01/16 11:26:18;;;;;;;53.67;28.67;;;2.60;99.90;;;;;;4928343;29;20531;-73
2022/01/16 11:29:04;;;;;;;48.83;26.15;;;2.70;99.90;;;;;;4934741;29;20256;-74
2022/01/16 11:31:50;;;;;;;57.97;30.10;;;2.70;99.90;;;;;;4929862;29;20337;-73
2022/01/16 11:34:38;;;;;;;55.55;28.00;;;2.70;99.90;;;;;;4934400;29;20586;-72
2022/01/16 11:37:23;;;;;;;57.80;29.13;;;2.60;99.90;;;;;;4928411;29;20352;-73
2022/01/16 11:40:29;;;;;;;58.40;28.83;;;2.70;99.90;;;;;;4928679;29;20240;-72
2022/01/16 11:43:32;;;;;;;55.42;29.10;;;2.70;99.90;;;;;;4931624;29;20249;-74
2022/01/16 11:46:19;;;;;;;55.58;26.73;;;2.80;99.90;;;;;;4934891;29;20303;-74
2022/01/16 11:49:07;;;;;;;49.65;27.50;;;2.80;99.90;;;;;;4935895;29;20697;-74
2022/01/16 11:52:05;;;;;;;52.00;27.42;;;2.60;99.90;;;;;;4935946;29;20208;-74
2022/01/16 11:54:53;;;;;;;47.40;26.15;;;2.70;99.90;;;;;;4933968;29;20201;-74
2022/01/16 11:57:56;;;;;;;48.15;26.27;;;2.70;99.90;;;;;;4930492;29;20309;-74
2022/01/16 12:00:48;;;;;;;52.45;26.13;;;2.70;99.90;;;;;;4931519;29;20220;-74
2022/01/16 12:03:35;;;;;;;46.42;25.50;;;2.80;99.90;;;;;;4936664;29;20209;-74
2022/01/16 12:06:35;;;;;;;48.53;25.52;;;2.80;99.90;;;;;;4938028;29;20341;-74
2022/01/16 12:09:57;;;;;;;56.30;30.10;;;2.80;99.90;;;;;;4921521;29;20205;-73
2022/01/16 12:12:44;;;;;;;51.40;26.02;;;2.80;99.90;;;;;;4963456;23;20392;-71
2022/01/16 12:15:32;;;;;;;47.15;26.58;;;2.80;99.90;;;;;;4950484;28;20208;-72
2022/01/16 12:18:34;;;;;;;56.22;29.35;;;2.90;99.90;;;;;;4948124;29;20220;-72
2022/01/16 12:21:30;;;;;;;55.95;28.27;;;3.00;99.90;;;;;;4948102;28;20303;-71
2022/01/16 12:24:35;;;;;;;52.45;28.90;;;3.00;99.90;;;;;;4952296;28;20200;-72
2022/01/16 12:27:45;;;;;;;52.65;31.48;;;3.10;99.90;;;;;;4951712;28;20402;-72
2022/01/16 12:30:41;;;;;;;51.47;28.75;;;3.10;99.90;;;;;;4948643;28;20287;-72
2022/01/16 12:33:31;;;;;;;55.33;29.13;;;2.90;99.90;;;;;;4953461;29;20219;-72
2022/01/16 12:36:17;;;;;;;47.22;27.58;;;2.90;99.90;;;;;;4953464;28;20204;-71
2022/01/16 12:39:07;;;;;;;50.42;28.20;;;3.00;99.90;;;;;;4952931;28;20236;-70
2022/01/16 12:41:55;;;;;;;64.65;35.25;;;2.90;99.90;;;;;;4952259;28;20313;-72
2022/01/16 12:44:41;;;;;;;48.40;25.65;;;3.00;99.90;;;;;;4950079;28;20220;-71
2022/01/16 12:47:28;;;;;;;53.10;28.13;;;3.10;99.90;;;;;;4949718;29;20215;-72
2022/01/16 12:50:15;;;;;;;49.38;26.58;;;3.10;99.90;;;;;;4952150;29;20252;-71
2022/01/16 12:53:01;;;;;;;51.35;26.75;;;3.10;99.90;;;;;;4954306;28;20228;-69
2022/01/16 12:55:46;;;;;;;49.67;26.75;;;3.10;99.90;;;;;;4953872;28;20208;-71
2022/01/16 12:58:32;;;;;;;50.67;27.77;;;3.20;99.90;;;;;;4953498;28;20235;-70
2022/01/16 13:01:18;;;;;;;51.08;27.35;;;3.20;99.90;;;;;;4947496;29;20417;-72
2022/01/16 13:04:05;;;;;;;51.63;27.92;;;3.20;99.90;;;;;;4951675;28;20287;-72
2022/01/16 13:06:51;;;;;;;52.35;27.73;;;3.10;99.90;;;;;;4954192;28;20203;-72
2022/01/16 13:09:37;;;;;;;59.83;28.10;;;3.10;99.90;;;;;;4953746;28;20304;-72
2022/01/16 13:12:23;;;;;;;49.40;27.17;;;3.10;99.90;;;;;;4953901;28;20235;-72
2022/01/16 13:15:09;;;;;;;42.80;26.23;;;3.10;99.90;;;;;;4942982;28;20336;-71
2022/01/16 13:17:55;;;;;;;51.22;29.25;;;3.20;99.90;;;;;;4951368;28;20224;-72
2022/01/16 13:20:42;;;;;;;53.08;28.42;;;3.20;99.90;;;;;;4946899;28;20223;-72
2022/01/16 13:23:28;;;;;;;51.13;28.02;;;3.30;99.90;;;;;;4952091;29;20204;-71
2022/01/16 13:26:26;;;;;;;49.15;26.88;;;3.30;99.90;;;;;;4953650;28;20227;-72
2022/01/16 13:29:15;;;;;;;56.60;29.42;;;3.40;99.90;;;;;;4952767;28;20200;-70
2022/01/16 13:32:04;;;;;;;46.33;27.40;;;3.40;99.90;;;;;;4952465;28;20283;-71
2022/01/16 13:34:53;;;;;;;50.75;27.55;;;3.40;99.90;;;;;;4951594;28;20693;-72
2022/01/16 13:37:40;;;;;;;50.83;27.65;;;3.50;99.90;;;;;;4949078;29;20260;-72
2022/01/16 13:40:27;;;;;;;50.00;26.42;;;3.40;99.90;;;;;;4952602;28;20267;-71
2022/01/16 13:43:15;;;;;;;51.50;27.75;;;3.50;99.90;;;;;;4949121;28;20211;-72
2022/01/16 13:46:12;;;;;;;46.85;26.00;;;3.50;99.90;;;;;;4950120;28;20228;-71
2022/01/16 13:49:02;;;;;;;48.72;25.88;;;3.60;99.90;;;;;;4953922;29;20686;-71
2022/01/16 13:51:56;;;;;;;45.45;26.60;;;3.60;99.90;;;;;;4940128;28;20580;-72
2022/01/16 13:54:42;;;;;;;43.65;27.48;;;3.60;99.90;;;;;;4950747;28;20291;-72
2022/01/16 13:57:32;;;;;;;48.40;26.52;;;3.60;99.90;;;;;;4947588;29;20239;-71
2022/01/16 14:00:19;;;;;;;45.60;25.35;;;3.60;99.90;;;;;;4952772;28;20682;-71
2022/01/16 14:03:17;;;;;;;58.13;29.48;;;3.60;99.90;;;;;;4943838;28;20357;-72
2022/01/16 14:06:06;;;;;;;52.35;29.05;;;3.60;99.90;;;;;;4948093;28;20285;-72
2022/01/16 14:08:54;;;;;;;55.78;28.40;;;3.60;99.90;;;;;;4952407;28;20196;-71
2022/01/16 14:11:43;;;;;;;51.10;29.30;;;3.80;99.90;;;;;;4951505;28;20290;-71
2022/01/16 14:14:38;;;;;;;49.85;26.05;;;3.80;99.90;;;;;;4951984;28;20208;-71
2022/01/16 14:17:43;;;;;;;52.03;29.75;;;3.80;99.90;;;;;;4945464;28;20208;-71
2022/01/16 14:23:32;;;;;;;57.03;29.30;;;3.70;99.90;;;;;;4944012;28;20365;-71
2022/01/16 14:26:18;;;;;;;47.90;27.63;;;3.70;99.90;;;;;;4945185;28;20199;-71
2022/01/16 14:29:05;;;;;;;50.20;26.70;;;3.70;99.90;;;;;;4952613;28;20212;-71
2022/01/16 14:31:52;;;;;;;56.25;29.35;;;3.70;99.90;;;;;;4950588;28;20223;-70
2022/01/16 14:34:39;;;;;;;44.08;26.48;;;3.70;99.90;;;;;;4949607;28;20200;-72
2022/01/16 14:37:27;;;;;;;46.80;26.90;;;3.70;99.90;;;;;;4946026;28;20296;-70
2022/01/16 14:40:13;;;;;;;44.92;24.85;;;3.80;99.90;;;;;;4952089;28;20228;-71
2022/01/16 14:43:03;;;;;;;45.47;26.38;;;3.80;99.90;;;;;;4949744;28;20232;-71
2022/01/16 14:45:51;;;;;;;49.80;26.45;;;3.80;99.90;;;;;;4952575;28;20209;-71
2022/01/16 14:48:37;;;;;;;53.78;29.05;;;3.80;99.90;;;;;;4947964;28;20200;-72
2022/01/16 14:51:23;;;;;;;50.00;28.73;;;3.70;99.90;;;;;;4948680;28;20227;-71
2022/01/16 14:54:09;;;;;;;52.40;27.13;;;3.70;99.90;;;;;;4948650;28;20672;-70
2022/01/16 14:56:55;;;;;;;49.22;24.20;;;3.80;99.90;;;;;;4944737;28;20288;-72
2022/01/16 14:59:41;;;;;;;47.40;25.85;;;3.70;99.90;;;;;;4946389;28;20283;-72
2022/01/16 15:02:32;;;;;;;54.60;27.48;;;3.70;99.90;;;;;;4945125;28;20280;-71
2022/01/16 15:05:18;;;;;;;53.42;28.70;;;3.70;99.90;;;;;;4949258;28;20207;-70
2022/01/16 15:08:05;;;;;;;48.88;26.75;;;3.70;99.90;;;;;;4944455;28;20216;-70